createdAt,value
2019-02-02T00:00:41.408Z,985.06
2019-02-02T00:01:41.394Z,985.02
2019-02-02T00:02:41.382Z,984.99
2019-02-02T00:03:41.376Z,984.99
2019-02-02T00:04:41.366Z,985.03
2019-02-02T00:05:41.351Z,985.02
2019-02-02T00:06:41.340Z,985.01
2019-02-02T00:07:41.332Z,985.02
2019-02-02T00:08:41.317Z,985.06
2019-02-02T00:09:41.297Z,985.04
2019-02-02T00:10:41.299Z,985.05
2019-02-02T00:11:41.285Z,985.01
2019-02-02T00:12:41.274Z,985.00
2019-02-02T00:13:41.266Z,985.02
2019-02-02T00:14:41.255Z,984.97
2019-02-02T00:15:41.239Z,984.97
2019-02-02T00:16:41.235Z,985.02
2019-02-02T00:17:41.219Z,985.00
2019-02-02T00:18:41.211Z,985.00
2019-02-02T00:19:41.201Z,985.05
2019-02-02T00:20:41.188Z,985.02
2019-02-02T00:21:41.175Z,985.04
2019-02-02T00:22:41.169Z,985.01
2019-02-02T00:23:41.153Z,985.03
2019-02-02T00:24:41.148Z,984.97
2019-02-02T00:25:41.135Z,984.99
2019-02-02T00:26:41.121Z,984.99
2019-02-02T00:27:41.856Z,985.02
2019-02-02T00:28:41.097Z,985.04
2019-02-02T00:29:41.086Z,985.04
2019-02-02T00:30:41.080Z,985.03
2019-02-02T00:31:41.068Z,985.01
2019-02-02T00:32:41.059Z,985.03
2019-02-02T00:33:41.048Z,984.99
2019-02-02T00:34:41.041Z,984.99
2019-02-02T00:35:41.023Z,984.98
2019-02-02T00:36:41.014Z,985.01
2019-02-02T00:37:41.005Z,984.99
2019-02-02T00:38:40.993Z,984.98
2019-02-02T00:39:40.981Z,984.95
2019-02-02T00:40:40.969Z,984.99
2019-02-02T00:41:40.956Z,984.99
2019-02-02T00:42:40.952Z,984.97
2019-02-02T00:43:40.943Z,985.00
2019-02-02T00:44:40.928Z,984.96
2019-02-02T00:45:40.920Z,984.99
2019-02-02T00:46:40.906Z,985.01
2019-02-02T00:47:40.892Z,984.96
2019-02-02T00:48:40.882Z,985.01
2019-02-02T00:49:40.872Z,985.05
2019-02-02T00:50:40.862Z,985.03
2019-02-02T00:51:40.854Z,985.05
2019-02-02T00:52:40.839Z,985.03
2019-02-02T00:53:40.825Z,985.07
2019-02-02T00:54:40.816Z,985.10
2019-02-02T00:55:40.808Z,985.10
2019-02-02T00:56:40.799Z,985.10
2019-02-02T00:57:40.802Z,985.10
2019-02-02T00:58:40.772Z,985.08
2019-02-02T00:59:40.763Z,985.12
2019-02-02T01:00:40.752Z,985.13
2019-02-02T01:01:40.744Z,985.16
2019-02-02T01:02:40.732Z,985.12
2019-02-02T01:03:40.718Z,985.12
2019-02-02T01:04:40.712Z,985.13
2019-02-02T01:05:40.699Z,985.14
2019-02-02T01:06:40.798Z,985.14
2019-02-02T01:07:40.676Z,985.13
2019-02-02T01:08:40.666Z,985.19
2019-02-02T01:09:40.656Z,985.16
2019-02-02T01:10:40.643Z,985.21
2019-02-02T01:11:40.631Z,985.18
2019-02-02T01:12:40.623Z,985.17
2019-02-02T01:13:40.608Z,985.18
2019-02-02T01:14:40.602Z,985.15
2019-02-02T01:15:40.590Z,985.19
2019-02-02T01:16:40.577Z,985.18
2019-02-02T01:17:40.566Z,985.15
2019-02-02T01:18:40.553Z,985.16
2019-02-02T01:19:40.545Z,985.17
2019-02-02T01:20:40.533Z,985.18
2019-02-02T01:21:40.523Z,985.19
2019-02-02T01:22:40.515Z,985.17
2019-02-02T01:23:40.506Z,985.16
2019-02-02T01:24:40.491Z,985.18
2019-02-02T01:25:40.481Z,985.17
2019-02-02T01:26:40.467Z,985.14
2019-02-02T01:27:40.459Z,985.16
2019-02-02T01:28:40.451Z,985.17
2019-02-02T01:29:40.442Z,985.17
2019-02-02T01:30:40.426Z,985.21
2019-02-02T01:31:40.417Z,985.22
2019-02-02T01:32:40.403Z,985.23
2019-02-02T01:33:40.393Z,985.25
2019-02-02T01:34:40.385Z,985.27
2019-02-02T01:35:40.459Z,985.21
2019-02-02T01:36:40.356Z,985.22
2019-02-02T01:37:40.350Z,985.24
2019-02-02T01:38:40.337Z,985.24
2019-02-02T01:39:40.322Z,985.24
2019-02-02T01:40:40.323Z,985.20
2019-02-02T01:41:40.310Z,985.20
2019-02-02T01:42:40.295Z,985.22
2019-02-02T01:43:40.286Z,985.26
2019-02-02T01:44:40.278Z,985.22
2019-02-02T01:45:40.262Z,985.25
2019-02-02T01:46:40.255Z,985.26
2019-02-02T01:47:40.244Z,985.30
2019-02-02T01:48:40.231Z,985.27
2019-02-02T01:49:40.306Z,985.26
2019-02-02T01:50:40.214Z,985.27
2019-02-02T01:51:40.197Z,985.32
2019-02-02T01:52:40.187Z,985.34
2019-02-02T01:53:40.184Z,985.30
2019-02-02T01:54:40.168Z,985.34
2019-02-02T01:55:40.156Z,985.30
2019-02-02T01:56:40.144Z,985.30
2019-02-02T01:57:40.131Z,985.29
2019-02-02T01:58:40.126Z,985.31
2019-02-02T01:59:40.111Z,985.36
2019-02-02T02:00:40.098Z,985.34
2019-02-02T02:01:41.771Z,985.40
2019-02-02T02:02:40.078Z,985.35
2019-02-02T02:03:40.069Z,985.41
2019-02-02T02:04:40.057Z,985.39
2019-02-02T02:05:40.040Z,985.37
2019-02-02T02:06:40.040Z,985.36
2019-02-02T02:07:40.027Z,985.39
2019-02-02T02:08:40.019Z,985.38
2019-02-02T02:09:40.006Z,985.41
2019-02-02T02:10:39.989Z,985.38
2019-02-02T02:11:39.983Z,985.40
2019-02-02T02:12:39.975Z,985.42
2019-02-02T02:13:39.962Z,985.43
2019-02-02T02:14:39.949Z,985.40
2019-02-02T02:15:40.046Z,985.44
2019-02-02T02:16:39.931Z,985.44
2019-02-02T02:17:39.906Z,985.45
2019-02-02T02:18:39.906Z,985.41
2019-02-02T02:19:39.897Z,985.39
2019-02-02T02:20:39.890Z,985.37
2019-02-02T02:21:39.870Z,985.37
2019-02-02T02:22:41.057Z,985.40
2019-02-02T02:23:39.856Z,985.38
2019-02-02T02:24:39.853Z,985.39
2019-02-02T02:25:39.828Z,985.40
2019-02-02T02:26:39.824Z,985.41
2019-02-02T02:27:39.809Z,985.41
2019-02-02T02:28:39.797Z,985.44
2019-02-02T02:29:39.784Z,985.41
2019-02-02T02:30:39.779Z,985.40
2019-02-02T02:31:39.872Z,985.44
2019-02-02T02:32:39.758Z,985.41
2019-02-02T02:33:39.741Z,985.45
2019-02-02T02:34:39.734Z,985.41
2019-02-02T02:35:39.728Z,985.43
2019-02-02T02:36:39.712Z,985.41
2019-02-02T02:37:39.703Z,985.40
2019-02-02T02:38:39.692Z,985.44
2019-02-02T02:39:39.681Z,985.43
2019-02-02T02:40:39.667Z,985.48
2019-02-02T02:41:39.657Z,985.47
2019-02-02T02:42:39.647Z,985.46
2019-02-02T02:43:39.635Z,985.51
2019-02-02T02:44:39.626Z,985.53
2019-02-02T02:45:39.616Z,985.56
2019-02-02T02:46:39.608Z,985.59
2019-02-02T02:47:39.597Z,985.60
2019-02-02T02:48:39.580Z,985.64
2019-02-02T02:49:39.571Z,985.65
2019-02-02T02:50:39.565Z,985.70
2019-02-02T02:51:39.551Z,985.63
2019-02-02T02:52:39.541Z,985.69
2019-02-02T02:53:39.533Z,985.71
2019-02-02T02:54:39.519Z,985.73
2019-02-02T02:55:39.522Z,985.72
2019-02-02T02:56:39.497Z,985.73
2019-02-02T02:57:39.489Z,985.69
2019-02-02T02:58:41.592Z,985.72
2019-02-02T02:59:39.472Z,985.70
2019-02-02T03:00:39.449Z,985.69
2019-02-02T03:01:39.439Z,985.73
2019-02-02T03:02:39.465Z,985.65
2019-02-02T03:03:39.422Z,985.71
2019-02-02T03:04:39.411Z,985.75
2019-02-02T03:05:39.401Z,985.73
2019-02-02T03:06:39.387Z,985.73
2019-02-02T03:07:39.510Z,985.72
2019-02-02T03:08:39.367Z,985.68
2019-02-02T03:09:39.354Z,985.73
2019-02-02T03:10:39.348Z,985.71
2019-02-02T03:11:39.337Z,985.71
2019-02-02T03:12:39.325Z,985.69
2019-02-02T03:13:39.313Z,985.69
2019-02-02T03:14:39.301Z,985.62
2019-02-02T03:15:39.291Z,985.66
2019-02-02T03:16:39.281Z,985.61
2019-02-02T03:17:39.275Z,985.61
2019-02-02T03:18:39.258Z,985.62
2019-02-02T03:19:39.251Z,985.62
2019-02-02T03:20:39.238Z,985.64
2019-02-02T03:21:39.226Z,985.64
2019-02-02T03:22:39.225Z,985.66
2019-02-02T03:23:39.209Z,985.65
2019-02-02T03:24:39.202Z,985.64
2019-02-02T03:25:39.182Z,985.58
2019-02-02T03:26:39.172Z,985.63
2019-02-02T03:27:39.163Z,985.66
2019-02-02T03:28:39.151Z,985.65
2019-02-02T03:29:39.138Z,985.64
2019-02-02T03:30:39.129Z,985.64
2019-02-02T03:31:39.119Z,985.66
2019-02-02T03:32:39.114Z,985.64
2019-02-02T03:33:39.095Z,985.64
2019-02-02T03:34:39.095Z,985.64
2019-02-02T03:35:39.082Z,985.61
2019-02-02T03:36:39.070Z,985.68
2019-02-02T03:37:39.060Z,985.66
2019-02-02T03:38:39.042Z,985.68
2019-02-02T03:39:39.030Z,985.72
2019-02-02T03:40:39.020Z,985.70
2019-02-02T03:41:39.006Z,985.71
2019-02-02T03:42:39.002Z,985.74
2019-02-02T03:43:38.993Z,985.73
2019-02-02T03:44:38.982Z,985.74
2019-02-02T03:45:40.777Z,985.78
2019-02-02T03:46:38.955Z,985.77
2019-02-02T03:47:38.949Z,985.78
2019-02-02T03:48:38.942Z,985.80
2019-02-02T03:49:38.928Z,985.81
2019-02-02T03:50:38.913Z,985.77
2019-02-02T03:51:38.900Z,985.78
2019-02-02T03:52:38.896Z,985.81
2019-02-02T03:53:41.077Z,985.82
2019-02-02T03:54:38.871Z,985.83
2019-02-02T03:55:38.861Z,985.84
2019-02-02T03:56:38.849Z,985.87
2019-02-02T03:57:38.839Z,985.85
2019-02-02T03:58:38.830Z,985.88
2019-02-02T03:59:38.817Z,985.94
2019-02-02T04:00:38.806Z,985.89
2019-02-02T04:01:38.797Z,985.90
2019-02-02T04:02:38.786Z,985.89
2019-02-02T04:03:38.781Z,985.92
2019-02-02T04:04:38.767Z,985.85
2019-02-02T04:05:38.751Z,985.90
2019-02-02T04:06:38.750Z,985.91
2019-02-02T04:07:38.731Z,985.88
2019-02-02T04:08:38.722Z,985.91
2019-02-02T04:09:38.713Z,985.91
2019-02-02T04:10:38.696Z,985.88
2019-02-02T04:11:38.686Z,985.90
2019-02-02T04:12:38.676Z,985.87
2019-02-02T04:13:38.664Z,985.86
2019-02-02T04:14:38.673Z,985.85
2019-02-02T04:15:38.646Z,985.85
2019-02-02T04:16:38.635Z,985.82
2019-02-02T04:17:38.625Z,985.85
2019-02-02T04:18:38.611Z,985.83
2019-02-02T04:19:38.599Z,985.84
2019-02-02T04:20:38.592Z,985.85
2019-02-02T04:21:38.580Z,985.86
2019-02-02T04:22:38.580Z,985.86
2019-02-02T04:23:38.556Z,985.84
2019-02-02T04:24:38.546Z,985.89
2019-02-02T04:25:38.535Z,985.87
2019-02-02T04:26:38.527Z,985.91
2019-02-02T04:27:38.516Z,985.93
2019-02-02T04:28:38.518Z,985.96
2019-02-02T04:29:38.492Z,985.98
2019-02-02T04:30:38.481Z,985.97
2019-02-02T04:31:38.468Z,986.01
2019-02-02T04:32:38.465Z,986.02
2019-02-02T04:33:38.449Z,986.04
2019-02-02T04:34:38.438Z,986.01
2019-02-02T04:35:38.427Z,986.04
2019-02-02T04:36:38.417Z,986.05
2019-02-02T04:37:38.525Z,986.03
2019-02-02T04:38:38.395Z,986.07
2019-02-02T04:39:38.388Z,986.01
2019-02-02T04:40:38.378Z,986.02
2019-02-02T04:41:38.359Z,986.02
2019-02-02T04:42:38.351Z,986.02
2019-02-02T04:43:38.461Z,986.00
2019-02-02T04:44:38.325Z,986.02
2019-02-02T04:45:38.322Z,986.02
2019-02-02T04:46:38.308Z,986.03
2019-02-02T04:47:38.378Z,986.03
2019-02-02T04:48:38.289Z,986.06
2019-02-02T04:49:38.285Z,986.10
2019-02-02T04:50:38.267Z,986.11
2019-02-02T04:51:38.254Z,986.11
2019-02-02T04:52:38.243Z,986.12
2019-02-02T04:53:38.232Z,986.12
2019-02-02T04:54:38.219Z,986.12
2019-02-02T04:55:38.206Z,986.16
2019-02-02T04:56:38.196Z,986.17
2019-02-02T04:57:38.181Z,986.12
2019-02-02T04:58:38.181Z,986.18
2019-02-02T04:59:38.167Z,986.21
2019-02-02T05:00:38.157Z,986.16
2019-02-02T05:01:38.145Z,986.19
2019-02-02T05:02:38.129Z,986.20
2019-02-02T05:03:38.161Z,986.21
2019-02-02T05:04:38.111Z,986.24
2019-02-02T05:05:38.098Z,986.24
2019-02-02T05:06:38.090Z,986.24
2019-02-02T05:07:38.081Z,986.26
2019-02-02T05:08:38.080Z,986.23
2019-02-02T05:09:38.049Z,986.25
2019-02-02T05:10:38.045Z,986.26
2019-02-02T05:11:38.044Z,986.19
2019-02-02T05:12:38.108Z,986.25
2019-02-02T05:13:38.010Z,986.23
2019-02-02T05:14:37.998Z,986.25
2019-02-02T05:15:37.988Z,986.26
2019-02-02T05:16:37.976Z,986.27
2019-02-02T05:17:37.968Z,986.24
2019-02-02T05:18:37.958Z,986.25
2019-02-02T05:19:37.953Z,986.24
2019-02-02T05:20:37.946Z,986.24
2019-02-02T05:21:37.918Z,986.31
2019-02-02T05:22:37.951Z,986.31
2019-02-02T05:23:37.900Z,986.33
2019-02-02T05:24:37.894Z,986.36
2019-02-02T05:25:37.882Z,986.33
2019-02-02T05:26:37.873Z,986.34
2019-02-02T05:27:37.861Z,986.35
2019-02-02T05:28:37.847Z,986.32
2019-02-02T05:29:41.446Z,986.35
2019-02-02T05:30:37.835Z,986.34
2019-02-02T05:31:37.840Z,986.34
2019-02-02T05:32:37.805Z,986.36
2019-02-02T05:33:37.793Z,986.36
2019-02-02T05:34:37.786Z,986.32
2019-02-02T05:35:37.769Z,986.33
2019-02-02T05:36:37.754Z,986.32
2019-02-02T05:37:37.773Z,986.35
2019-02-02T05:38:37.734Z,986.35
2019-02-02T05:39:37.745Z,986.35
2019-02-02T05:40:37.721Z,986.39
2019-02-02T05:41:37.706Z,986.39
2019-02-02T05:42:37.700Z,986.41
2019-02-02T05:43:37.685Z,986.41
2019-02-02T05:44:37.675Z,986.43
2019-02-02T05:45:37.663Z,986.41
2019-02-02T05:46:37.651Z,986.43
2019-02-02T05:47:37.633Z,986.44
2019-02-02T05:48:37.630Z,986.41
2019-02-02T05:49:37.613Z,986.46
2019-02-02T05:50:37.610Z,986.44
2019-02-02T05:51:37.605Z,986.40
2019-02-02T05:52:37.585Z,986.43
2019-02-02T05:53:37.577Z,986.45
2019-02-02T05:54:37.565Z,986.44
2019-02-02T05:55:37.544Z,986.45
2019-02-02T05:56:37.547Z,986.44
2019-02-02T05:57:37.534Z,986.43
2019-02-02T05:58:37.515Z,986.48
2019-02-02T05:59:37.507Z,986.50
2019-02-02T06:00:37.497Z,986.50
2019-02-02T06:01:37.487Z,986.51
2019-02-02T06:02:37.477Z,986.52
2019-02-02T06:03:37.464Z,986.55
2019-02-02T06:04:37.453Z,986.55
2019-02-02T06:05:37.444Z,986.55
2019-02-02T06:06:37.431Z,986.58
2019-02-02T06:07:37.418Z,986.57
2019-02-02T06:08:37.410Z,986.60
2019-02-02T06:09:37.389Z,986.62
2019-02-02T06:10:37.393Z,986.60
2019-02-02T06:11:37.382Z,986.56
2019-02-02T06:12:37.365Z,986.60
2019-02-02T06:13:37.357Z,986.62
2019-02-02T06:14:37.347Z,986.68
2019-02-02T06:15:37.333Z,986.71
2019-02-02T06:16:37.324Z,986.71
2019-02-02T06:17:37.311Z,986.68
2019-02-02T06:18:37.303Z,986.71
2019-02-02T06:19:37.294Z,986.72
2019-02-02T06:20:37.268Z,986.72
2019-02-02T06:21:37.265Z,986.74
2019-02-02T06:22:37.281Z,986.74
2019-02-02T06:23:37.247Z,986.75
2019-02-02T06:24:37.238Z,986.71
2019-02-02T06:25:37.366Z,986.72
2019-02-02T06:26:37.241Z,986.73
2019-02-02T06:27:37.229Z,986.74
2019-02-02T06:28:37.188Z,986.77
2019-02-02T06:29:37.181Z,986.82
2019-02-02T06:30:37.165Z,986.76
2019-02-02T06:31:37.184Z,986.84
2019-02-02T06:32:37.150Z,986.81
2019-02-02T06:33:37.139Z,986.82
2019-02-02T06:34:37.186Z,986.82
2019-02-02T06:35:37.124Z,986.77
2019-02-02T06:36:37.128Z,986.84
2019-02-02T06:37:37.227Z,986.85
2019-02-02T06:38:37.110Z,986.85
2019-02-02T06:39:37.080Z,986.85
2019-02-02T06:40:37.102Z,986.90
2019-02-02T06:41:37.071Z,986.89
2019-02-02T06:42:37.058Z,986.96
2019-02-02T06:43:37.077Z,986.99
2019-02-02T06:44:37.056Z,987.04
2019-02-02T06:45:37.015Z,987.05
2019-02-02T06:46:43.802Z,987.09
2019-02-02T06:47:36.982Z,987.10
2019-02-02T06:48:36.972Z,987.13
2019-02-02T06:49:36.996Z,987.13
2019-02-02T06:50:36.950Z,987.16
2019-02-02T06:51:36.931Z,987.11
2019-02-02T06:52:36.923Z,987.10
2019-02-02T06:53:36.908Z,987.17
2019-02-02T06:54:36.904Z,987.16
2019-02-02T06:55:36.897Z,987.16
2019-02-02T06:56:36.884Z,987.22
2019-02-02T06:57:36.866Z,987.22
2019-02-02T06:58:36.860Z,987.23
2019-02-02T06:59:36.846Z,987.26
2019-02-02T07:00:36.856Z,987.27
2019-02-02T07:01:36.827Z,987.26
2019-02-02T07:02:36.811Z,987.28
2019-02-02T07:03:36.798Z,987.32
2019-02-02T07:04:36.789Z,987.31
2019-02-02T07:05:36.788Z,987.39
2019-02-02T07:06:36.767Z,987.40
2019-02-02T07:07:36.870Z,987.39
2019-02-02T07:08:36.754Z,987.43
2019-02-02T07:09:36.762Z,987.47
2019-02-02T07:10:36.735Z,987.48
2019-02-02T07:11:36.719Z,987.44
2019-02-02T07:12:36.709Z,987.46
2019-02-02T07:13:36.692Z,987.46
2019-02-02T07:14:36.690Z,987.46
2019-02-02T07:15:36.674Z,987.44
2019-02-02T07:16:36.660Z,987.49
2019-02-02T07:17:36.653Z,987.45
2019-02-02T07:18:36.650Z,987.44
2019-02-02T07:19:36.636Z,987.47
2019-02-02T07:20:36.630Z,987.47
2019-02-02T07:21:36.617Z,987.50
2019-02-02T07:22:36.605Z,987.54
2019-02-02T07:23:36.582Z,987.55
2019-02-02T07:24:36.568Z,987.61
2019-02-02T07:25:36.558Z,987.61
2019-02-02T07:26:36.557Z,987.64
2019-02-02T07:27:36.548Z,987.65
2019-02-02T07:28:36.545Z,987.58
2019-02-02T07:29:36.522Z,987.64
2019-02-02T07:30:36.509Z,987.61
2019-02-02T07:31:36.498Z,987.62
2019-02-02T07:32:36.495Z,987.60
2019-02-02T07:33:36.473Z,987.67
2019-02-02T07:34:36.467Z,987.65
2019-02-02T07:35:36.461Z,987.64
2019-02-02T07:36:36.441Z,987.66
2019-02-02T07:37:36.426Z,987.68
2019-02-02T07:38:36.429Z,987.66
2019-02-02T07:39:36.416Z,987.73
2019-02-02T07:40:36.410Z,987.71
2019-02-02T07:41:36.392Z,987.73
2019-02-02T07:42:36.382Z,987.75
2019-02-02T07:43:36.367Z,987.76
2019-02-02T07:44:36.357Z,987.80
2019-02-02T07:45:36.352Z,987.84
2019-02-02T07:46:36.336Z,987.87
2019-02-02T07:47:36.321Z,987.87
2019-02-02T07:48:36.310Z,987.92
2019-02-02T07:49:36.297Z,987.88
2019-02-02T07:50:36.294Z,987.92
2019-02-02T07:51:36.287Z,987.94
2019-02-02T07:52:36.274Z,987.96
2019-02-02T07:53:36.261Z,987.96
2019-02-02T07:54:36.250Z,987.97
2019-02-02T07:55:36.228Z,987.95
2019-02-02T07:56:36.229Z,987.99
2019-02-02T07:57:36.212Z,987.98
2019-02-02T07:58:36.210Z,987.96
2019-02-02T07:59:36.202Z,987.98
2019-02-02T08:00:40.868Z,988.00
2019-02-02T08:01:36.175Z,988.01
2019-02-02T08:02:36.161Z,988.00
2019-02-02T08:03:36.143Z,988.05
2019-02-02T08:04:36.146Z,988.06
2019-02-02T08:05:36.153Z,988.11
2019-02-02T08:06:36.116Z,988.13
2019-02-02T08:07:36.120Z,988.13
2019-02-02T08:08:36.098Z,988.14
2019-02-02T08:09:36.125Z,988.17
2019-02-02T08:10:36.074Z,988.16
2019-02-02T08:11:36.072Z,988.20
2019-02-02T08:12:36.058Z,988.22
2019-02-02T08:13:36.051Z,988.23
2019-02-02T08:14:36.046Z,988.27
2019-02-02T08:15:36.121Z,988.30
2019-02-02T08:16:36.048Z,988.32
2019-02-02T08:17:36.044Z,988.35
2019-02-02T08:18:36.003Z,988.32
2019-02-02T08:19:36.006Z,988.32
2019-02-02T08:20:37.018Z,988.34
2019-02-02T08:21:36.134Z,988.32
2019-02-02T08:22:35.965Z,988.35
2019-02-02T08:23:36.119Z,988.30
2019-02-02T08:24:38.598Z,988.30
2019-02-02T08:25:36.098Z,988.34
2019-02-02T08:26:36.062Z,988.32
2019-02-02T08:27:35.930Z,988.33
2019-02-02T08:28:35.899Z,988.33
2019-02-02T08:29:35.886Z,988.38
2019-02-02T08:30:36.334Z,988.40
2019-02-02T08:31:35.855Z,988.43
2019-02-02T08:32:35.860Z,988.45
2019-02-02T08:33:35.923Z,988.43
2019-02-02T08:34:35.823Z,988.44
2019-02-02T08:35:35.967Z,988.46
2019-02-02T08:36:35.807Z,988.50
2019-02-02T08:37:35.789Z,988.52
2019-02-02T08:38:35.778Z,988.52
2019-02-02T08:39:35.773Z,988.54
2019-02-02T08:40:36.042Z,988.53
2019-02-02T08:41:36.069Z,988.58
2019-02-02T08:42:35.956Z,988.56
2019-02-02T08:43:35.906Z,988.56
2019-02-02T08:44:35.719Z,988.55
2019-02-02T08:45:36.175Z,988.57
2019-02-02T08:46:35.694Z,988.56
2019-02-02T08:47:35.694Z,988.59
2019-02-02T08:48:35.674Z,988.65
2019-02-02T08:49:35.668Z,988.67
2019-02-02T08:50:35.669Z,988.67
2019-02-02T08:51:35.668Z,988.69
2019-02-02T08:52:35.639Z,988.72
2019-02-02T08:53:35.797Z,988.72
2019-02-02T08:54:35.606Z,988.71
2019-02-02T08:55:35.597Z,988.71
2019-02-02T08:56:35.584Z,988.76
2019-02-02T08:57:35.586Z,988.75
2019-02-02T08:58:35.569Z,988.77
2019-02-02T08:59:35.561Z,988.79
2019-02-02T09:00:35.552Z,988.80
2019-02-02T09:01:35.568Z,988.82
2019-02-02T09:02:35.547Z,988.79
2019-02-02T09:03:35.557Z,988.79
2019-02-02T09:04:35.509Z,988.79
2019-02-02T09:05:35.505Z,988.87
2019-02-02T09:06:39.077Z,988.82
2019-02-02T09:07:38.293Z,988.87
2019-02-02T09:08:35.514Z,988.82
2019-02-02T09:09:35.486Z,988.86
2019-02-02T09:10:35.447Z,988.83
2019-02-02T09:11:35.446Z,988.87
2019-02-02T09:12:35.429Z,988.89
2019-02-02T09:13:36.883Z,988.85
2019-02-02T09:14:35.397Z,988.90
2019-02-02T09:15:35.392Z,988.91
2019-02-02T09:16:35.398Z,988.93
2019-02-02T09:17:35.454Z,988.99
2019-02-02T09:18:35.637Z,988.98
2019-02-02T09:19:35.367Z,988.98
2019-02-02T09:20:35.345Z,988.95
2019-02-02T09:21:35.381Z,988.98
2019-02-02T09:22:35.319Z,988.97
2019-02-02T09:23:35.319Z,988.99
2019-02-02T09:24:35.301Z,988.92
2019-02-02T09:25:35.289Z,988.98
2019-02-02T09:26:35.276Z,988.97
2019-02-02T09:27:35.264Z,988.93
2019-02-02T09:28:35.255Z,988.97
2019-02-02T09:29:35.248Z,988.97
2019-02-02T09:30:35.242Z,989.02
2019-02-02T09:31:35.545Z,988.99
2019-02-02T09:32:35.223Z,989.03
2019-02-02T09:33:35.220Z,989.03
2019-02-02T09:34:35.206Z,989.01
2019-02-02T09:35:35.188Z,989.02
2019-02-02T09:36:35.181Z,989.02
2019-02-02T09:37:35.194Z,989.02
2019-02-02T09:38:35.172Z,989.03
2019-02-02T09:39:35.148Z,989.04
2019-02-02T09:40:41.265Z,989.07
2019-02-02T09:41:40.637Z,989.07
2019-02-02T09:42:37.010Z,989.05
2019-02-02T09:43:45.420Z,989.02
2019-02-02T09:44:42.276Z,989.07
2019-02-02T09:48:35.056Z,989.08
2019-02-02T09:49:35.331Z,989.08
2019-02-02T09:50:35.892Z,989.09
2019-02-02T09:51:35.083Z,989.07
2019-02-02T09:52:35.741Z,989.09
2019-02-02T09:53:35.028Z,989.14
2019-02-02T09:54:35.014Z,989.19
2019-02-02T09:55:35.011Z,989.19
2019-02-02T09:56:34.990Z,989.25
2019-02-02T09:58:03.507Z,989.25
2019-02-02T09:58:34.962Z,989.22
2019-02-02T09:59:34.960Z,989.28
2019-02-02T10:00:35.006Z,989.28
2019-02-02T10:01:35.001Z,989.27
2019-02-02T10:02:34.938Z,989.30
2019-02-02T10:03:34.949Z,989.33
2019-02-02T10:04:34.908Z,989.36
2019-02-02T10:05:34.918Z,989.36
2019-02-02T10:06:34.898Z,989.39
2019-02-02T10:07:34.892Z,989.37
2019-02-02T10:08:34.881Z,989.37
2019-02-02T10:09:34.889Z,989.41
2019-02-02T10:10:34.863Z,989.42
2019-02-02T10:11:34.838Z,989.40
2019-02-02T10:12:34.833Z,989.44
2019-02-02T10:13:34.820Z,989.48
2019-02-02T10:14:34.813Z,989.48
2019-02-02T10:15:34.807Z,989.47
2019-02-02T10:16:34.798Z,989.49
2019-02-02T10:17:34.789Z,989.49
2019-02-02T10:18:34.770Z,989.53
2019-02-02T10:19:34.760Z,989.55
2019-02-02T10:20:34.770Z,989.53
2019-02-02T10:21:34.781Z,989.54
2019-02-02T10:24:06.853Z,989.57
2019-02-02T10:25:06.831Z,989.57
2019-02-02T10:27:25.300Z,989.63
2019-02-02T10:28:01.201Z,989.65
2019-02-02T10:29:54.669Z,989.67
2019-02-02T10:30:54.564Z,989.68
2019-02-02T10:32:47.972Z,989.74
2019-02-02T10:33:47.986Z,989.76
2019-02-02T10:35:41.323Z,989.74
2019-02-02T10:36:41.309Z,989.77
2019-02-02T10:38:35.687Z,989.81
2019-02-02T10:39:35.652Z,989.79
2019-02-02T10:40:35.673Z,989.81
2019-02-02T10:41:35.671Z,989.81
2019-02-02T10:42:35.609Z,989.82
2019-02-02T10:43:35.622Z,989.81
2019-02-02T10:44:35.607Z,989.78
2019-02-02T10:45:35.601Z,989.76
2019-02-02T10:46:35.582Z,989.77
2019-02-02T10:47:35.574Z,989.77
2019-02-02T10:48:35.559Z,989.81
2019-02-02T10:49:35.548Z,989.81
2019-02-02T10:50:35.546Z,989.76
2019-02-02T10:51:35.531Z,989.78
2019-02-02T10:52:35.534Z,989.75
2019-02-02T10:53:35.520Z,989.78
2019-02-02T10:54:35.499Z,989.78
2019-02-02T10:55:35.508Z,989.80
2019-02-02T10:56:35.482Z,989.88
2019-02-02T10:57:35.478Z,989.82
2019-02-02T10:58:35.461Z,989.82
2019-02-02T10:59:35.478Z,989.92
2019-02-02T11:00:35.441Z,989.92
2019-02-02T11:01:35.435Z,989.93
2019-02-02T11:02:35.435Z,989.98
2019-02-02T11:03:35.412Z,990.01
2019-02-02T11:04:35.617Z,990.05
2019-02-02T11:05:35.446Z,990.06
2019-02-02T11:06:35.436Z,990.07
2019-02-02T11:07:35.412Z,990.08
2019-02-02T11:08:35.647Z,990.04
2019-02-02T11:09:35.431Z,990.06
2019-02-02T11:10:35.471Z,990.10
2019-02-02T11:11:35.449Z,990.08
2019-02-02T11:12:35.323Z,990.07
2019-02-02T11:13:35.347Z,990.13
2019-02-02T11:14:35.343Z,990.13
2019-02-02T11:15:35.293Z,990.15
2019-02-02T11:16:35.422Z,990.19
2019-02-02T11:17:35.389Z,990.20
2019-02-02T11:18:35.380Z,990.23
2019-02-02T11:19:35.502Z,990.20
2019-02-02T11:20:35.286Z,990.25
2019-02-02T11:21:35.242Z,990.21
2019-02-02T11:22:35.604Z,990.23
2019-02-02T11:23:35.347Z,990.23
2019-02-02T11:24:35.238Z,990.24
2019-02-02T11:25:35.199Z,990.26
2019-02-02T11:26:35.272Z,990.30
2019-02-02T11:27:35.329Z,990.31
2019-02-02T11:28:35.243Z,990.34
2019-02-02T11:29:35.155Z,990.32
2019-02-02T11:30:35.162Z,990.35
2019-02-02T11:31:35.131Z,990.40
2019-02-02T11:32:35.118Z,990.41
2019-02-02T11:33:35.118Z,990.41
2019-02-02T11:34:35.106Z,990.41
2019-02-02T11:35:35.097Z,990.44
2019-02-02T11:36:35.089Z,990.47
2019-02-02T11:37:35.079Z,990.45
2019-02-02T11:38:35.062Z,990.42
2019-02-02T11:39:35.049Z,990.45
2019-02-02T11:40:35.038Z,990.49
2019-02-02T11:41:35.028Z,990.49
2019-02-02T11:42:35.024Z,990.56
2019-02-02T11:43:35.018Z,990.58
2019-02-02T11:44:35.003Z,990.58
2019-02-02T11:45:35.010Z,990.56
2019-02-02T11:46:34.983Z,990.58
2019-02-02T11:47:34.972Z,990.61
2019-02-02T11:48:34.983Z,990.54
2019-02-02T11:49:34.955Z,990.55
2019-02-02T11:50:34.999Z,990.59
2019-02-02T11:51:35.025Z,990.63
2019-02-02T11:52:35.031Z,990.59
2019-02-02T11:53:37.319Z,990.66
2019-02-02T11:54:35.037Z,990.65
2019-02-02T11:55:34.938Z,990.67
2019-02-02T11:56:35.198Z,990.70
2019-02-02T11:57:37.098Z,990.76
2019-02-02T11:58:35.046Z,990.72
2019-02-02T11:59:35.046Z,990.77
2019-02-02T12:00:35.242Z,990.77
2019-02-02T12:01:34.918Z,990.82
2019-02-02T12:02:35.146Z,990.85
2019-02-02T12:03:34.985Z,990.85
2019-02-02T12:04:35.079Z,990.86
2019-02-02T12:05:35.238Z,990.85
2019-02-02T12:06:35.036Z,990.95
2019-02-02T12:07:34.993Z,990.89
2019-02-02T12:08:34.778Z,990.94
2019-02-02T12:09:34.754Z,990.97
2019-02-02T12:10:34.748Z,990.97
2019-02-02T12:11:34.749Z,990.95
2019-02-02T12:12:34.728Z,990.94
2019-02-02T12:13:35.796Z,990.95
2019-02-02T12:14:34.703Z,990.94
2019-02-02T12:15:34.696Z,990.93
2019-02-02T12:16:34.678Z,990.92
2019-02-02T12:17:34.681Z,990.90
2019-02-02T12:18:34.665Z,990.92
2019-02-02T12:19:34.657Z,990.94
2019-02-02T12:20:34.649Z,990.95
2019-02-02T12:21:34.631Z,990.97
2019-02-02T12:22:34.626Z,990.95
2019-02-02T12:23:35.242Z,990.96
2019-02-02T12:24:34.646Z,990.96
2019-02-02T12:25:34.612Z,990.94
2019-02-02T12:26:34.757Z,990.98
2019-02-02T12:27:34.635Z,990.99
2019-02-02T12:28:35.039Z,991.05
2019-02-02T12:29:34.757Z,991.04
2019-02-02T12:30:34.633Z,991.04
2019-02-02T12:31:36.522Z,991.06
2019-02-02T12:32:34.642Z,991.09
2019-02-02T12:33:34.564Z,991.08
2019-02-02T12:34:35.357Z,991.11
2019-02-02T12:35:37.023Z,991.15
2019-02-02T12:36:35.305Z,991.18
2019-02-02T12:37:34.488Z,991.17